Time;durP1;ratioP1;P1;durP2;ratioP2;P2;SDS_P1;SDS_P2;PMS_P1;PMS_P2;Temp;Humidity;BMP_temperature;BMP_pressure;BME280_temperature;BME280_humidity;BME280_pressure;Samples;Min_cycle;Max_cycle;Signal;HPM_P1;HPM_P2
2021/12/17 00:04:50;;;;;;;;;;;;;;;17.01;65.49;101699.81;4967774;28;2344;-37
2021/12/17 00:07:17;;;;;;;;;;;;;;;17.07;64.89;101699.44;4970568;28;1004;-37
2021/12/17 00:09:45;;;;;;;;;;;;;;;17.04;65.18;101700.47;4978412;28;1821;-36
2021/12/17 00:12:13;;;;;;;;;;;;;;;16.99;65.29;101697.28;4978384;28;1726;-37
2021/12/17 00:14:40;;;;;;;;;;;;;;;16.95;65.50;101698.44;4972683;28;1779;-36
2021/12/17 00:17:12;;;;;;;;;;;;;;;16.95;65.24;101705.56;4975352;28;2167;-37
2021/12/17 00:19:57;;;;;;;;;;;;;;;16.92;65.19;101705.78;4979582;28;1810;-36
2021/12/17 00:48:21;;;;;;;;;;;;;;;16.69;65.16;101711.59;4978279;28;1763;-39
2021/12/17 00:50:02;;;;;;;;;;;;;;;16.66;65.17;101722.47;4972892;28;1835;-36
2021/12/17 00:52:31;;;;;;;;;;;;;;;16.68;65.06;101714.38;4982216;28;1793;-36
2021/12/17 00:54:58;;;;;;;;;;;;;;;16.62;66.08;101712.94;4980630;28;1261;-36
2021/12/17 00:57:28;;;;;;;;;;;;;;;16.61;66.18;101723.72;4985636;28;1921;-36
2021/12/17 00:59:55;;;;;;;;;;;;;;;16.60;65.66;101712.19;4980619;28;1049;-37
2021/12/17 01:02:24;;;;;;;;;;;;;;;16.58;65.55;101714.09;4982962;28;1817;-37
2021/12/17 01:04:52;;;;;;;;;;;;;;;16.54;65.86;101712.56;4975400;28;1911;-37
2021/12/17 01:07:21;;;;;;;;;;;;;;;16.47;65.04;101701.44;4978653;28;1718;-36
2021/12/17 01:09:48;;;;;;;;;;;;;;;16.49;65.91;101706.66;4965287;28;1070;-37
2021/12/17 01:12:15;;;;;;;;;;;;;;;16.55;65.71;101703.59;4977347;28;1990;-36
2021/12/17 01:14:42;;;;;;;;;;;;;;;16.56;65.18;101694.63;4978018;28;1786;-37
2021/12/17 01:17:09;;;;;;;;;;;;;;;16.63;65.62;101712.00;4974650;28;1815;-37
2021/12/17 01:20:08;;;;;;;;;;;;;;;16.63;65.95;101713.78;4980441;28;1612;-37
2021/12/17 01:22:50;;;;;;;;;;;;;;;16.55;65.22;101703.59;4966729;28;1953;-36
2021/12/17 01:25:22;;;;;;;;;;;;;;;16.58;65.38;101702.56;4969433;28;1914;-37
2021/12/17 01:36:01;;;;;;;;;;;;;;;16.51;65.51;101686.03;4971309;28;1943;-36
2021/12/17 01:43:55;;;;;;;;;;;;;;;16.49;65.33;101671.94;4982876;28;1486;-36
2021/12/17 01:46:25;;;;;;;;;;;;;;;16.38;65.30;101653.94;4971871;28;1951;-37
2021/12/17 01:49:02;;;;;;;;;;;;;;;16.38;66.21;101685.13;4977340;28;1891;-37
2021/12/17 01:59:18;;;;;;;;;;;;;;;16.42;64.86;101643.94;4961065;28;2357;-36
2021/12/17 01:59:44;;;;;;;;;;;;;;;16.41;65.68;101636.84;4967433;28;1744;-37
2021/12/17 02:02:12;;;;;;;;;;;;;;;16.40;66.17;101637.84;4973708;28;1746;-37
2021/12/17 02:04:38;;;;;;;;;;;;;;;16.38;65.23;101624.56;4980986;28;1823;-36
2021/12/17 02:07:06;;;;;;;;;;;;;;;16.40;66.18;101614.66;4981262;28;1911;-37
2021/12/17 02:12:54;;;;;;;;;;;;;;;16.38;65.32;101605.03;4957644;28;2300;-36
2021/12/17 02:21:24;;;;;;;;;;;;;;;16.23;65.88;101612.19;4977718;28;1741;-37
2021/12/17 02:30:00;;;;;;;;;;;;;;;16.21;65.15;101592.75;4981645;28;1745;-36
2021/12/17 02:32:29;;;;;;;;;;;;;;;16.18;65.87;101593.81;4980121;28;1790;-36
2021/12/17 02:35:13;;;;;;;;;;;;;;;16.23;66.33;101599.69;4981283;28;1758;-36
2021/12/17 02:37:44;;;;;;;;;;;;;;;16.30;65.96;101592.19;4977726;28;1909;-36
2021/12/17 02:42:20;;;;;;;;;;;;;;;16.33;65.05;101586.63;4968190;28;1250;-37
2021/12/17 02:45:43;;;;;;;;;;;;;;;16.33;64.95;101557.25;4976865;28;1910;-36
2021/12/17 02:48:11;;;;;;;;;;;;;;;16.29;64.92;101559.31;4975957;28;2436;-36
2021/12/17 02:50:40;;;;;;;;;;;;;;;16.30;65.44;101554.81;4973729;28;1914;-36
2021/12/17 02:53:08;;;;;;;;;;;;;;;16.27;64.96;101560.34;4969513;28;1790;-37
2021/12/17 02:55:35;;;;;;;;;;;;;;;16.23;65.63;101567.66;4980330;28;1056;-37
2021/12/17 02:58:03;;;;;;;;;;;;;;;16.19;65.01;101558.16;4979041;28;1790;-36
2021/12/17 03:03:07;;;;;;;;;;;;;;;16.20;64.79;101559.88;5003006;28;1814;-36
2021/12/17 03:05:36;;;;;;;;;;;;;;;16.22;64.88;101557.13;4971127;28;1970;-36
2021/12/17 03:08:06;;;;;;;;;;;;;;;16.15;64.88;101561.97;4987528;28;1229;-36
2021/12/17 03:10:36;;;;;;;;;;;;;;;16.10;65.87;101564.94;4990166;28;999;-37
2021/12/17 03:13:12;;;;;;;;;;;;;;;16.08;64.94;101560.66;4989823;28;1796;-37
2021/12/17 03:15:50;;;;;;;;;;;;;;;16.18;65.04;101547.59;4972782;28;1518;-36
2021/12/17 03:23:51;;;;;;;;;;;;;;;16.20;65.20;101529.69;4990379;28;1820;-36
2021/12/17 03:26:41;;;;;;;;;;;;;;;16.20;65.22;101521.66;4991942;28;1981;-36
2021/12/17 03:29:09;;;;;;;;;;;;;;;16.10;65.58;101508.06;4992303;28;1070;-37
2021/12/17 03:31:50;;;;;;;;;;;;;;;16.07;65.57;101517.09;4977627;28;1522;-36
2021/12/17 03:34:19;;;;;;;;;;;;;;;16.04;65.89;101533.31;4978729;28;1573;-36
2021/12/17 03:36:48;;;;;;;;;;;;;;;16.04;64.86;101524.47;4991137;28;1524;-37
2021/12/17 03:39:15;;;;;;;;;;;;;;;16.11;64.93;101533.78;4992116;28;1759;-37
2021/12/17 03:41:52;;;;;;;;;;;;;;;16.13;65.30;101528.34;4993247;28;1574;-36
2021/12/17 03:44:20;;;;;;;;;;;;;;;16.14;64.67;101554.09;4988628;28;1245;-38
2021/12/17 03:46:47;;;;;;;;;;;;;;;16.16;65.19;101530.84;4973528;28;1903;-36
2021/12/17 03:49:19;;;;;;;;;;;;;;;16.10;64.88;101522.25;4983299;28;1754;-36
2021/12/17 03:51:53;;;;;;;;;;;;;;;16.04;64.95;101537.81;4979902;28;1957;-36
2021/12/17 03:54:21;;;;;;;;;;;;;;;16.02;65.78;101537.03;4975232;28;1942;-36
2021/12/17 03:56:54;;;;;;;;;;;;;;;16.02;65.03;101523.69;4992718;28;1859;-36
2021/12/17 03:59:22;;;;;;;;;;;;;;;16.04;66.01;101511.13;4974880;28;1554;-37
2021/12/17 04:01:49;;;;;;;;;;;;;;;16.06;65.68;101511.88;4976285;28;1849;-37
2021/12/17 04:04:19;;;;;;;;;;;;;;;16.10;65.10;101532.06;4992170;28;1099;-36
2021/12/17 04:06:49;;;;;;;;;;;;;;;16.11;64.90;101544.44;4988327;28;2341;-36
2021/12/17 04:09:19;;;;;;;;;;;;;;;16.07;65.14;101532.25;4978551;28;1941;-36
2021/12/17 04:12:07;;;;;;;;;;;;;;;16.09;64.78;101543.69;4976419;28;1778;-36
2021/12/17 04:17:24;;;;;;;;;;;;;;;16.03;65.66;101547.59;4984155;28;1616;-36
2021/12/17 04:19:52;;;;;;;;;;;;;;;16.01;65.72;101548.66;4978655;28;1693;-36
2021/12/17 04:22:19;;;;;;;;;;;;;;;15.99;65.66;101553.22;4993172;28;1684;-37
2021/12/17 04:24:49;;;;;;;;;;;;;;;15.99;64.93;101553.22;4987055;28;1006;-36
2021/12/17 04:27:17;;;;;;;;;;;;;;;15.99;66.09;101539.88;4972441;28;1886;-36
2021/12/17 04:29:45;;;;;;;;;;;;;;;15.95;65.02;101543.72;4975279;28;1723;-36
2021/12/17 04:32:13;;;;;;;;;;;;;;;15.93;64.98;101551.81;4979269;28;1666;-36
2021/12/17 04:34:46;;;;;;;;;;;;;;;15.93;66.11;101550.94;4976571;28;1505;-36
2021/12/17 04:37:15;;;;;;;;;;;;;;;15.93;65.48;101551.81;4990981;28;1663;-37
2021/12/17 04:39:42;;;;;;;;;;;;;;;15.98;65.64;101543.53;4990901;28;1103;-36
2021/12/17 04:42:15;;;;;;;;;;;;;;;15.90;66.24;101554.66;4992057;28;1765;-36
2021/12/17 04:44:55;;;;;;;;;;;;;;;15.88;66.46;101549.44;4985498;28;1760;-37
2021/12/17 04:58:19;;;;;;;;;;;;;;;15.93;65.41;101532.28;4976585;28;1730;-36
2021/12/17 05:00:45;;;;;;;;;;;;;;;15.95;65.71;101533.03;4980980;28;1764;-36
2021/12/17 05:03:14;;;;;;;;;;;;;;;16.00;65.26;101557.63;4980850;28;1805;-36
2021/12/17 05:05:40;;;;;;;;;;;;;;;15.98;65.37;101547.03;4981413;28;1902;-36
2021/12/17 05:08:11;;;;;;;;;;;;;;;15.97;65.27;101541.78;4980087;28;1810;-36
2021/12/17 05:10:55;;;;;;;;;;;;;;;15.91;66.25;101538.56;4977905;28;1046;-36
2021/12/17 05:18:58;;;;;;;;;;;;;;;15.94;65.48;101532.19;4982397;28;1585;-37
2021/12/17 05:21:25;;;;;;;;;;;;;;;15.94;65.16;101542.00;4980916;28;1703;-36
2021/12/17 05:23:52;;;;;;;;;;;;;;;15.97;66.30;101536.47;4983703;28;1897;-36
2021/12/17 05:37:25;;;;;;;;;;;;;;;15.93;65.66;101566.94;5068526;28;1311;-35
2021/12/17 05:39:51;;;;;;;;;;;;;;;15.89;66.59;101559.13;5068170;28;1905;-35
2021/12/17 05:42:19;;;;;;;;;;;;;;;15.89;66.58;101566.28;5067082;28;2038;-35
2021/12/17 05:44:51;;;;;;;;;;;;;;;15.90;65.56;101541.34;5067578;28;1902;-35
2021/12/17 05:47:18;;;;;;;;;;;;;;;15.86;65.76;101546.00;5067658;28;1783;-37
2021/12/17 05:49:44;;;;;;;;;;;;;;;15.88;65.91;101538.75;5068128;28;1458;-37
2021/12/17 05:52:11;;;;;;;;;;;;;;;15.79;66.56;101531.31;5069237;28;1205;-37
2021/12/17 05:54:38;;;;;;;;;;;;;;;15.77;66.65;101525.22;5068136;28;2238;-40
2021/12/17 05:57:05;;;;;;;;;;;;;;;15.78;66.33;101510.97;5068193;28;1749;-38
2021/12/17 05:59:34;;;;;;;;;;;;;;;15.81;66.64;101504.56;5067784;28;1878;-38
2021/12/17 06:02:04;;;;;;;;;;;;;;;15.79;66.45;101507.31;5068004;28;1786;-37
2021/12/17 06:04:30;;;;;;;;;;;;;;;15.77;65.74;101506.56;5068135;28;1836;-37
2021/12/17 06:06:56;;;;;;;;;;;;;;;15.79;66.78;101507.31;5066852;28;1910;-38
2021/12/17 06:09:23;;;;;;;;;;;;;;;15.86;66.55;101513.16;5068553;28;1996;-38
2021/12/17 06:11:51;;;;;;;;;;;;;;;15.87;66.58;101525.50;5067777;28;1562;-37
2021/12/17 06:14:17;;;;;;;;;;;;;;;15.94;66.18;101510.84;5067536;28;1521;-37
2021/12/17 06:16:44;;;;;;;;;;;;;;;15.95;67.08;101514.38;5067465;28;1719;-37
2021/12/17 06:19:10;;;;;;;;;;;;;;;15.98;64.95;101527.53;5066461;28;1999;-37
2021/12/17 06:21:36;;;;;;;;;;;;;;;15.95;67.00;101514.38;5067216;28;1632;-39
2021/12/17 06:24:03;;;;;;;;;;;;;;;15.96;66.32;101513.44;5066966;28;1331;-38
2021/12/17 06:26:30;;;;;;;;;;;;;;;15.97;66.56;101512.47;5067085;28;1909;-37
2021/12/17 06:28:58;;;;;;;;;;;;;;;15.97;66.09;101520.47;5066118;28;1768;-37
2021/12/17 06:31:25;;;;;;;;;;;;;;;16.00;67.41;101520.28;5033998;27;11662;-38
2021/12/17 06:33:52;;;;;;;;;;;;;;;16.07;65.90;101521.59;5075411;28;1558;-38
2021/12/17 06:36:18;;;;;;;;;;;;;;;16.06;68.13;101519.88;5064902;28;1909;-38
2021/12/17 06:38:45;;;;;;;;;;;;;;;16.40;65.62;101507.03;5053970;28;1013;-37
2021/12/17 06:41:11;;;;;;;;;;;;;;;17.20;65.67;101517.75;5053770;28;1582;-37
2021/12/17 06:43:40;;;;;;;;;;;;;;;17.92;63.69;101525.22;5053860;28;1646;-37
2021/12/17 06:46:21;;;;;;;;;;;;;;;18.40;62.28;101523.50;5052597;28;1985;-39
2021/12/17 06:48:55;;;;;;;;;;;;;;;18.78;62.36;101511.75;5052232;28;1487;-38
2021/12/17 06:59:40;;;;;;;;;;;;;;;19.30;61.17;101506.03;5053588;28;1715;-37
2021/12/17 07:10:30;;;;;;;;;;;;;;;18.47;62.83;101497.94;5014335;28;1723;-38
2021/12/17 07:19:02;;;;;;;;;;;;;;;18.35;62.93;101490.00;5050436;28;1900;-37
2021/12/17 07:21:30;;;;;;;;;;;;;;;18.31;63.19;101501.91;5042124;28;1770;-38
2021/12/17 07:32:33;;;;;;;;;;;;;;;19.47;60.82;101509.13;5051940;28;1854;-37
2021/12/17 07:35:26;;;;;;;;;;;;;;;19.95;59.02;101508.03;5048928;28;1515;-37
2021/12/17 07:40:44;;;;;;;;;;;;;;;20.53;56.98;101499.75;5004700;28;1737;-38
2021/12/17 07:43:21;;;;;;;;;;;;;;;19.76;59.86;101503.31;5044782;28;1733;-39
2021/12/17 07:45:48;;;;;;;;;;;;;;;19.39;60.54;101511.53;5043004;28;1906;-37
2021/12/17 07:48:15;;;;;;;;;;;;;;;19.88;60.47;101511.38;5045777;28;1318;-37
2021/12/17 07:50:42;;;;;;;;;;;;;;;19.58;59.82;101512.81;5047798;28;1676;-41
2021/12/17 07:53:09;;;;;;;;;;;;;;;19.60;61.34;101510.84;5052214;28;1681;-37
2021/12/17 07:55:35;;;;;;;;;;;;;;;19.54;61.32;101522.91;5048810;28;1687;-38
2021/12/17 07:58:02;;;;;;;;;;;;;;;19.51;60.21;101523.16;5042995;28;1670;-37
2021/12/17 08:00:28;;;;;;;;;;;;;;;19.76;60.49;101522.09;5047628;28;1657;-37
2021/12/17 08:02:55;;;;;;;;;;;;;;;19.66;59.45;101502.31;5050650;28;1648;-37
2021/12/17 08:05:21;;;;;;;;;;;;;;;19.68;60.70;101508.41;5052073;28;1927;-37
2021/12/17 08:07:49;;;;;;;;;;;;;;;19.60;60.98;101500.13;5047778;28;1518;-39
2021/12/17 08:10:15;;;;;;;;;;;;;;;19.60;60.23;101508.19;5042888;28;1816;-40
2021/12/17 08:12:42;;;;;;;;;;;;;;;19.57;60.31;101495.00;5051642;28;1573;-37
2021/12/17 08:15:11;;;;;;;;;;;;;;;19.61;60.25;101505.34;5052199;28;1989;-38
2021/12/17 08:17:51;;;;;;;;;;;;;;;19.61;61.05;101512.53;5051102;28;1750;-37
2021/12/17 08:26:02;;;;;;;;;;;;;;;19.44;61.51;101495.97;5034929;28;2010;-37
2021/12/17 08:28:49;;;;;;;;;;;;;;;19.28;61.54;101484.72;5041541;28;1456;-37
2021/12/17 08:31:15;;;;;;;;;;;;;;;19.17;62.13;101487.38;5045948;28;1539;-37
2021/12/17 08:33:42;;;;;;;;;;;;;;;19.06;61.29;101488.22;5042041;28;1538;-37
2021/12/17 08:36:08;;;;;;;;;;;;;;;19.01;61.93;101477.84;5041195;28;1584;-37
2021/12/17 08:38:36;;;;;;;;;;;;;;;18.97;61.72;101478.22;5052683;28;1060;-37
2021/12/17 08:41:02;;;;;;;;;;;;;;;18.85;62.78;101466.59;5042746;28;1606;-37
2021/12/17 08:43:29;;;;;;;;;;;;;;;18.91;62.08;101466.13;5049625;28;1672;-37
2021/12/17 08:45:55;;;;;;;;;;;;;;;18.80;62.80;101456.25;5043364;28;1910;-37
2021/12/17 08:48:22;;;;;;;;;;;;;;;18.74;62.30;101461.16;5049842;28;1637;-37
2021/12/17 08:50:48;;;;;;;;;;;;;;;18.58;63.24;101467.72;5044937;28;1366;-37
2021/12/17 08:53:15;;;;;;;;;;;;;;;18.73;62.36;101446.06;5045684;28;1632;-37
2021/12/17 08:55:42;;;;;;;;;;;;;;;18.79;62.33;101450.97;5047803;28;1664;-37
2021/12/17 08:58:13;;;;;;;;;;;;;;;18.75;62.00;101436.94;5048285;28;1761;-39
2021/12/17 09:00:40;;;;;;;;;;;;;;;18.77;61.91;101431.47;5040731;28;1806;-37
2021/12/17 09:03:09;;;;;;;;;;;;;;;18.78;61.58;101422.44;5049670;28;1645;-37
2021/12/17 09:05:37;;;;;;;;;;;;;;;18.92;61.56;101434.81;5046857;28;1955;-37
2021/12/17 09:08:04;;;;;;;;;;;;;;;18.92;61.59;101421.41;5049801;28;1447;-38
2021/12/17 09:10:30;;;;;;;;;;;;;;;19.08;61.17;101414.75;5051128;28;1638;-37
2021/12/17 09:12:58;;;;;;;;;;;;;;;19.21;60.32;101408.41;5049595;28;1840;-38
2021/12/17 09:15:25;;;;;;;;;;;;;;;19.14;60.58;101402.69;5045107;28;1757;-37
2021/12/17 09:17:52;;;;;;;;;;;;;;;19.08;60.65;101397.81;5050074;28;2027;-37
2021/12/17 09:20:18;;;;;;;;;;;;;;;19.30;60.55;101396.09;5051031;28;1881;-37
2021/12/17 09:22:44;;;;;;;;;;;;;;;19.35;60.38;101392.06;5046896;28;1835;-37
2021/12/17 09:25:11;;;;;;;;;;;;;;;19.29;60.89;101373.81;5052193;28;1095;-38
2021/12/17 09:27:38;;;;;;;;;;;;;;;19.37;60.19;101379.41;5050629;28;2318;-37
2021/12/17 09:30:07;;;;;;;;;;;;;;;19.32;59.89;101378.94;5045300;28;1817;-37
2021/12/17 09:32:33;;;;;;;;;;;;;;;19.17;60.52;101380.16;5049518;28;1883;-38
2021/12/17 09:35:00;;;;;;;;;;;;;;;19.13;61.46;101386.72;5046328;28;1562;-37
2021/12/17 09:37:26;;;;;;;;;;;;;;;19.01;61.87;101365.25;5048965;28;1463;-37
2021/12/17 09:39:53;;;;;;;;;;;;;;;19.20;60.89;101382.56;5051541;28;1165;-38
2021/12/17 09:42:19;;;;;;;;;;;;;;;18.98;61.73;101368.19;5044965;28;1907;-37
2021/12/17 09:44:46;;;;;;;;;;;;;;;18.99;60.98;101379.78;5044217;28;1762;-35
2021/12/17 09:47:14;;;;;;;;;;;;;;;18.88;61.12;101359.19;5048200;28;1988;-35
2021/12/17 09:49:40;;;;;;;;;;;;;;;18.83;61.64;101359.53;5048049;28;1616;-35
2021/12/17 09:52:07;;;;;;;;;;;;;;;18.81;62.25;101352.59;5050780;28;1631;-34
2021/12/17 09:54:34;;;;;;;;;;;;;;;19.29;60.48;101357.72;5048597;28;1460;-36
2021/12/17 09:57:01;;;;;;;;;;;;;;;19.46;59.66;101338.44;5047828;28;1602;-35
2021/12/17 09:59:27;;;;;;;;;;;;;;;19.79;59.28;101357.28;5046080;28;1706;-37
2021/12/17 10:01:54;;;;;;;;;;;;;;;19.65;59.41;101331.56;5037474;28;1479;-36
2021/12/17 10:04:25;;;;;;;;;;;;;;;19.65;59.55;101320.81;5045525;28;1548;-35
2021/12/17 10:06:52;;;;;;;;;;;;;;;19.60;60.90;101328.41;5046200;28;1906;-37
2021/12/17 10:09:18;;;;;;;;;;;;;;;19.58;59.96;101319.66;5041734;28;1469;-36
2021/12/17 10:12:00;;;;;;;;;;;;;;;19.50;60.93;101316.72;5045815;28;1632;-36
2021/12/17 10:14:26;;;;;;;;;;;;;;;19.42;61.48;101326.25;5051411;28;1587;-35
2021/12/17 10:17:05;;;;;;;;;;;;;;;19.50;60.34;101338.16;5052952;28;1503;-36
2021/12/17 10:19:42;;;;;;;;;;;;;;;19.37;61.62;101335.63;5046306;28;1483;-37
2021/12/17 10:22:09;;;;;;;;;;;;;;;19.26;61.13;101336.53;5041565;28;1587;-37
2021/12/17 10:24:38;;;;;;;;;;;;;;;18.90;62.29;101319.72;5035333;28;1712;-36
2021/12/17 10:27:17;;;;;;;;;;;;;;;18.96;62.94;101308.50;5044306;28;1975;-38
2021/12/17 10:29:44;;;;;;;;;;;;;;;18.90;62.64;101330.44;5049723;28;1511;-37
2021/12/17 10:32:16;;;;;;;;;;;;;;;18.92;62.36;101317.78;5054045;28;1694;-37
2021/12/17 10:34:58;;;;;;;;;;;;;;;19.20;61.61;101327.13;5042447;28;1577;-37
2021/12/17 10:37:31;;;;;;;;;;;;;;;19.25;62.05;101319.56;5048285;28;1627;-36
2021/12/17 10:39:57;;;;;;;;;;;;;;;19.32;61.63;101317.25;5045381;28;1558;-36
2021/12/17 10:42:29;;;;;;;;;;;;;;;19.18;61.55;101313.00;5046880;28;1919;-37
2021/12/17 10:45:00;;;;;;;;;;;;;;;19.12;62.64;101312.63;5048196;28;1970;-36
2021/12/17 10:47:33;;;;;;;;;;;;;;;19.23;62.17;101304.56;5051239;28;2015;-37
2021/12/17 10:50:02;;;;;;;;;;;;;;;18.99;62.94;101291.31;5048831;28;1620;-37
2021/12/17 10:52:36;;;;;;;;;;;;;;;18.89;62.74;101293.88;5049128;28;1823;-37
2021/12/17 10:55:09;;;;;;;;;;;;;;;18.83;63.36;101310.44;5039995;28;1558;-36
2021/12/17 10:57:35;;;;;;;;;;;;;;;18.81;63.25;101299.84;5050391;28;1805;-37
2021/12/17 11:00:04;;;;;;;;;;;;;;;18.91;63.36;101302.66;5049084;28;1742;-37
2021/12/17 11:02:33;;;;;;;;;;;;;;;18.90;64.32;101287.56;5041385;28;1940;-36
2021/12/17 11:05:10;;;;;;;;;;;;;;;18.86;64.93;101291.44;5048095;28;1573;-36
2021/12/17 11:07:38;;;;;;;;;;;;;;;18.84;64.16;101301.41;5051159;28;1981;-36
2021/12/17 11:10:05;;;;;;;;;;;;;;;18.70;64.67;101286.41;5044920;28;1327;-36
2021/12/17 11:12:32;;;;;;;;;;;;;;;18.63;64.31;101282.50;5042781;28;2006;-40
2021/12/17 11:15:18;;;;;;;;;;;;;;;18.82;63.77;101284.59;5051817;28;1786;-36
2021/12/17 11:17:47;;;;;;;;;;;;;;;18.77;64.26;101297.50;5046114;28;1630;-37
2021/12/17 11:20:17;;;;;;;;;;;;;;;18.94;63.74;101289.03;5050599;28;1564;-36
2021/12/17 11:22:44;;;;;;;;;;;;;;;18.68;64.76;101278.50;5048366;28;2253;-36
2021/12/17 11:25:11;;;;;;;;;;;;;;;18.66;64.79;101283.13;5054004;28;1127;-35
2021/12/17 11:27:38;;;;;;;;;;;;;;;18.76;64.22;101260.94;5052669;28;1910;-36
2021/12/17 11:30:05;;;;;;;;;;;;;;;18.73;64.00;101270.09;5044288;28;1830;-36
2021/12/17 11:32:32;;;;;;;;;;;;;;;18.78;64.37;101267.91;5052149;28;2157;-35
2021/12/17 11:34:59;;;;;;;;;;;;;;;18.80;63.88;101260.63;5048086;28;1576;-35
2021/12/17 11:37:27;;;;;;;;;;;;;;;18.60;65.28;101256.84;5048078;28;1736;-37
2021/12/17 11:39:57;;;;;;;;;;;;;;;18.71;64.73;101252.44;5053912;28;998;-35
2021/12/17 11:42:30;;;;;;;;;;;;;;;18.82;63.55;101252.47;5052776;28;1914;-36
2021/12/17 11:47:37;;;;;;;;;;;;;;;18.90;64.11;101214.31;5042138;28;2396;-36
2021/12/17 11:50:05;;;;;;;;;;;;;;;18.80;63.87;101216.91;5051489;28;1561;-36
2021/12/17 11:52:44;;;;;;;;;;;;;;;18.87;63.54;101204.72;5052073;28;1604;-36
2021/12/17 11:55:23;;;;;;;;;;;;;;;18.97;63.46;101208.34;5037143;28;1800;-36
2021/12/17 11:57:50;;;;;;;;;;;;;;;19.08;63.01;101211.03;5052117;28;1103;-37
2021/12/17 12:00:18;;;;;;;;;;;;;;;18.87;63.74;101197.53;5052407;28;1958;-36
2021/12/17 12:02:47;;;;;;;;;;;;;;;18.80;63.98;101196.34;5052312;28;2003;-36
2021/12/17 12:05:33;;;;;;;;;;;;;;;18.75;64.08;101176.22;5052553;28;1941;-36
2021/12/17 12:08:24;;;;;;;;;;;;;;;18.94;62.77;101180.94;5049215;28;1914;-36
2021/12/17 12:11:02;;;;;;;;;;;;;;;18.91;63.43;101176.69;5037134;28;1980;-36
2021/12/17 12:13:34;;;;;;;;;;;;;;;18.92;63.84;101188.25;5052128;28;1772;-36
2021/12/17 12:16:02;;;;;;;;;;;;;;;18.66;63.58;101173.31;5052057;28;1516;-36
2021/12/17 12:18:39;;;;;;;;;;;;;;;18.72;63.98;101171.97;5052238;28;1596;-36
2021/12/17 12:21:05;;;;;;;;;;;;;;;18.67;63.75;101185.69;5051338;28;1878;-36
2021/12/17 12:23:43;;;;;;;;;;;;;;;18.48;64.02;101178.31;5051682;28;1239;-36
2021/12/17 12:26:11;;;;;;;;;;;;;;;18.58;64.08;101186.47;5039438;28;1922;-36
2021/12/17 12:28:42;;;;;;;;;;;;;;;18.77;63.36;101182.28;5051339;28;1898;-36
2021/12/17 12:31:08;;;;;;;;;;;;;;;18.68;63.84;101175.84;5049506;28;1557;-37
2021/12/17 12:33:35;;;;;;;;;;;;;;;18.71;63.59;101186.31;5045274;28;1516;-36
2021/12/17 12:36:01;;;;;;;;;;;;;;;18.63;64.08;101160.13;5047512;28;1506;-36
2021/12/17 12:38:29;;;;;;;;;;;;;;;18.68;63.75;101160.63;5044835;28;1535;-35
2021/12/17 12:40:59;;;;;;;;;;;;;;;19.07;61.94;101177.13;5044493;28;1676;-36
2021/12/17 12:43:26;;;;;;;;;;;;;;;18.76;63.15;101161.81;5041282;28;1611;-36
2021/12/17 12:45:53;;;;;;;;;;;;;;;18.71;63.83;101170.25;5047370;28;1845;-36
2021/12/17 12:48:29;;;;;;;;;;;;;;;18.87;62.72;101175.25;5045270;28;1902;-37
2021/12/17 12:51:10;;;;;;;;;;;;;;;18.64;63.33;101185.97;5052329;28;1674;-37
2021/12/17 12:53:38;;;;;;;;;;;;;;;18.61;63.48;101180.00;5049945;28;1623;-36
2021/12/17 12:56:08;;;;;;;;;;;;;;;18.65;62.96;101192.16;5049408;28;1921;-36
2021/12/17 12:58:37;;;;;;;;;;;;;;;18.51;63.27;101193.28;5035685;28;1620;-36
2021/12/17 13:01:06;;;;;;;;;;;;;;;18.40;63.68;101207.53;5042631;28;1661;-35
2021/12/17 13:03:34;;;;;;;;;;;;;;;18.36;63.66;101191.78;5046184;28;2133;-35
2021/12/17 13:06:01;;;;;;;;;;;;;;;18.50;63.16;101196.91;5040733;28;1748;-36
2021/12/17 13:08:30;;;;;;;;;;;;;;;18.72;62.03;101195.19;5043034;28;1902;-36
2021/12/17 13:10:59;;;;;;;;;;;;;;;18.63;62.99;101196.78;5051658;28;1631;-36
2021/12/17 13:13:34;;;;;;;;;;;;;;;18.80;62.54;101211.53;5045727;28;1935;-35
2021/12/17 13:16:09;;;;;;;;;;;;;;;18.95;62.34;101193.38;5038694;28;1645;-36
2021/12/17 13:21:34;;;;;;;;;;;;;;;18.82;62.17;101198.88;5049454;28;1582;-36
2021/12/17 13:24:10;;;;;;;;;;;;;;;18.94;62.41;101194.34;5035819;28;1265;-36
2021/12/17 13:26:37;;;;;;;;;;;;;;;18.92;61.45;101178.41;5042378;28;1832;-36
2021/12/17 13:29:06;;;;;;;;;;;;;;;18.79;62.34;101169.63;5050011;28;1967;-36
2021/12/17 13:31:51;;;;;;;;;;;;;;;18.82;61.99;101172.06;5050570;28;1807;-35
2021/12/17 13:34:28;;;;;;;;;;;;;;;18.91;61.52;101176.69;5046630;28;1659;-35
2021/12/17 13:36:59;;;;;;;;;;;;;;;18.95;61.05;101183.50;5044224;28;1749;-36
2021/12/17 13:39:28;;;;;;;;;;;;;;;18.90;62.26;101183.03;5042377;28;1775;-36
2021/12/17 13:41:54;;;;;;;;;;;;;;;18.83;61.33;101180.00;5041124;28;1713;-36
2021/12/17 13:44:37;;;;;;;;;;;;;;;18.73;62.94;101189.72;5040503;28;1712;-37
2021/12/17 13:47:07;;;;;;;;;;;;;;;18.87;62.17;101180.59;5050579;28;1906;-36
2021/12/17 13:49:34;;;;;;;;;;;;;;;18.92;62.77;101202.53;5051012;28;1558;-36
2021/12/17 13:52:01;;;;;;;;;;;;;;;19.00;61.62;101196.53;5047975;28;1863;-36
2021/12/17 13:54:27;;;;;;;;;;;;;;;18.74;63.09;101203.97;5047676;28;1488;-36
2021/12/17 13:56:56;;;;;;;;;;;;;;;18.92;62.05;101205.22;5048448;28;2139;-39
2021/12/17 13:59:27;;;;;;;;;;;;;;;18.93;61.73;101209.59;5054468;28;2304;-36
2021/12/17 14:01:55;;;;;;;;;;;;;;;18.79;62.46;101193.75;5054634;28;1854;-35
2021/12/17 14:04:22;;;;;;;;;;;;;;;18.80;62.27;101204.38;5050094;28;1771;-36
2021/12/17 14:06:52;;;;;;;;;;;;;;;18.77;62.56;101201.06;5054140;28;1692;-36
2021/12/17 14:09:19;;;;;;;;;;;;;;;18.78;62.26;101205.41;5056227;28;1971;-36
2021/12/17 14:11:46;;;;;;;;;;;;;;;18.86;61.78;101213.72;5053897;28;1757;-36
2021/12/17 14:14:23;;;;;;;;;;;;;;;18.91;61.53;101224.09;5047770;28;1779;-35
2021/12/17 14:16:58;;;;;;;;;;;;;;;18.92;62.50;101225.78;5049525;28;1655;-35
2021/12/17 14:19:38;;;;;;;;;;;;;;;18.77;61.10;101223.31;5054711;28;1690;-36
2021/12/17 14:22:18;;;;;;;;;;;;;;;18.91;60.93;101216.91;5048169;28;1714;-36
2021/12/17 14:24:45;;;;;;;;;;;;;;;18.74;61.33;101230.75;5043221;28;1290;-36
2021/12/17 14:27:11;;;;;;;;;;;;;;;18.91;62.08;101214.22;5048435;28;1905;-36
2021/12/17 14:29:38;;;;;;;;;;;;;;;18.85;61.72;101237.00;5043101;28;1645;-36
2021/12/17 14:32:06;;;;;;;;;;;;;;;18.95;62.05;101237.09;5048190;28;1931;-36
2021/12/17 14:34:40;;;;;;;;;;;;;;;18.89;62.12;101248.31;5047477;28;1653;-36
2021/12/17 14:37:06;;;;;;;;;;;;;;;19.00;61.58;101258.16;5046251;28;1599;-37
2021/12/17 14:39:35;;;;;;;;;;;;;;;19.04;61.79;101267.69;5037619;28;1564;-35
2021/12/17 14:42:04;;;;;;;;;;;;;;;18.91;61.80;101278.53;5049160;28;2070;-36
2021/12/17 14:44:37;;;;;;;;;;;;;;;18.98;61.44;101258.31;5054525;28;2062;-35
2021/12/17 14:47:16;;;;;;;;;;;;;;;19.08;62.00;101266.47;5047701;28;1941;-36
2021/12/17 15:01:09;;;;;;;;;;;;;;;19.12;62.10;101293.84;5044648;28;1506;-37
2021/12/17 15:03:41;;;;;;;;;;;;;;;19.25;61.71;101289.22;5054261;28;1741;-36
2021/12/17 15:06:08;;;;;;;;;;;;;;;19.08;61.64;101296.81;5048898;28;1592;-35
2021/12/17 15:08:35;;;;;;;;;;;;;;;18.96;61.89;101292.44;5050811;28;1951;-37
2021/12/17 15:11:04;;;;;;;;;;;;;;;18.97;62.02;101278.03;5049263;28;1610;-36
2021/12/17 15:13:30;;;;;;;;;;;;;;;18.89;62.40;101296.56;5051401;28;1467;-35
2021/12/17 15:15:57;;;;;;;;;;;;;;;18.86;62.98;101291.44;5047571;28;1766;-36
2021/12/17 15:18:24;;;;;;;;;;;;;;;18.93;62.49;101295.34;5037736;28;1933;-37
2021/12/17 15:20:53;;;;;;;;;;;;;;;19.10;62.29;101277.91;5038055;28;2171;-38
2021/12/17 15:23:20;;;;;;;;;;;;;;;18.94;62.77;101280.97;5043274;28;1628;-38
2021/12/17 15:25:48;;;;;;;;;;;;;;;18.89;62.51;101293.88;5040649;28;1893;-38
2021/12/17 15:28:16;;;;;;;;;;;;;;;18.73;63.53;101293.38;5042533;28;1937;-37
2021/12/17 15:30:43;;;;;;;;;;;;;;;18.77;63.17;101298.34;5043020;28;1878;-37
2021/12/17 15:33:10;;;;;;;;;;;;;;;18.90;63.00;101292.91;5050658;28;1714;-37
2021/12/17 15:35:37;;;;;;;;;;;;;;;18.82;63.09;101282.81;5045798;28;1790;-36
2021/12/17 15:38:08;;;;;;;;;;;;;;;18.88;62.78;101289.50;5047437;28;1679;-36
2021/12/17 15:40:35;;;;;;;;;;;;;;;19.11;61.78;101273.41;5035588;28;1983;-37
2021/12/17 15:43:03;;;;;;;;;;;;;;;19.17;62.45;101270.22;5048606;28;1712;-38